createdAt,value
2023-03-29T00:00:34.668Z,87.89
2023-03-29T00:01:36.492Z,87.99
2023-03-29T00:02:34.723Z,87.99
2023-03-29T00:03:34.762Z,87.99
2023-03-29T00:04:34.657Z,88.10
2023-03-29T00:05:34.789Z,88.10
2023-03-29T00:06:34.586Z,88.20
2023-03-29T00:07:34.592Z,88.31
2023-03-29T00:08:34.564Z,88.20
2023-03-29T00:09:34.597Z,88.31
2023-03-29T00:10:34.562Z,88.31
2023-03-29T00:11:34.543Z,88.31
2023-03-29T00:12:34.541Z,88.31
2023-03-29T00:13:34.515Z,88.31
2023-03-29T00:14:34.517Z,88.20
2023-03-29T00:15:34.537Z,88.10
2023-03-29T00:16:34.520Z,88.10
2023-03-29T00:17:34.488Z,88.20
2023-03-29T00:18:34.448Z,88.31
2023-03-29T00:19:34.451Z,88.31
2023-03-29T00:20:34.441Z,88.31
2023-03-29T00:21:34.450Z,88.31
2023-03-29T00:22:34.405Z,88.20
2023-03-29T00:23:34.411Z,88.31
2023-03-29T00:24:34.472Z,88.20
2023-03-29T00:25:35.386Z,88.20
2023-03-29T00:26:34.382Z,88.20
2023-03-29T00:27:34.359Z,88.20
2023-03-29T00:28:34.337Z,88.20
2023-03-29T00:29:34.483Z,88.20
2023-03-29T00:30:35.852Z,88.10
2023-03-29T00:31:34.334Z,88.10
2023-03-29T00:32:34.338Z,88.10
2023-03-29T00:33:34.305Z,88.10
2023-03-29T00:34:34.311Z,88.10
2023-03-29T00:35:34.309Z,87.99
2023-03-29T00:36:35.217Z,87.89
2023-03-29T00:37:34.264Z,87.89
2023-03-29T00:38:34.230Z,87.68
2023-03-29T00:39:34.234Z,87.58
2023-03-29T00:40:34.252Z,87.58
2023-03-29T00:41:34.214Z,87.58
2023-03-29T00:42:34.186Z,87.48
2023-03-29T00:43:34.188Z,87.48
2023-03-29T00:44:34.196Z,87.48
2023-03-29T00:45:34.160Z,87.37
2023-03-29T00:46:34.164Z,87.37
2023-03-29T00:47:34.176Z,87.27
2023-03-29T00:48:34.129Z,87.27
2023-03-29T00:49:34.153Z,87.37
2023-03-29T00:50:34.159Z,87.37
2023-03-29T00:51:34.105Z,87.37
2023-03-29T00:52:34.076Z,87.27
2023-03-29T00:53:34.066Z,87.27
2023-03-29T00:54:34.053Z,87.07
2023-03-29T00:55:34.164Z,86.96
2023-03-29T00:56:34.022Z,86.86
2023-03-29T00:57:34.054Z,86.86
2023-03-29T00:58:34.004Z,86.76
2023-03-29T00:59:34.016Z,86.76
2023-03-29T01:00:33.998Z,86.76
2023-03-29T01:01:34.267Z,86.76
2023-03-29T01:02:34.098Z,86.65
2023-03-29T01:03:34.134Z,86.65
2023-03-29T01:04:33.971Z,86.65
2023-03-29T01:05:34.002Z,86.65
2023-03-29T01:06:34.001Z,86.55
2023-03-29T01:07:33.914Z,86.65
2023-03-29T01:08:33.909Z,86.65
2023-03-29T01:09:33.959Z,86.65
2023-03-29T01:10:33.886Z,86.55
2023-03-29T01:11:33.865Z,86.55
2023-03-29T01:12:33.969Z,86.55
2023-03-29T01:13:33.848Z,86.55
2023-03-29T01:14:33.852Z,86.55
2023-03-29T01:15:33.845Z,86.44
2023-03-29T01:16:33.826Z,86.44
2023-03-29T01:17:33.838Z,86.44
2023-03-29T01:18:33.792Z,86.44
2023-03-29T01:19:33.796Z,86.34
2023-03-29T01:20:33.791Z,86.34
2023-03-29T01:21:33.802Z,86.34
2023-03-29T01:22:33.772Z,86.44
2023-03-29T01:23:33.750Z,86.44
2023-03-29T01:24:33.719Z,86.34
2023-03-29T01:25:33.771Z,86.34
2023-03-29T01:26:33.683Z,86.24
2023-03-29T01:27:33.698Z,86.13
2023-03-29T01:28:33.683Z,86.13
2023-03-29T01:29:33.811Z,86.13
2023-03-29T01:30:33.702Z,86.13
2023-03-29T01:31:33.700Z,86.34
2023-03-29T01:32:33.943Z,86.44
2023-03-29T01:33:34.591Z,86.34
2023-03-29T01:34:33.612Z,86.24
2023-03-29T01:35:33.649Z,86.24
2023-03-29T01:36:33.607Z,86.24
2023-03-29T01:37:33.621Z,86.13
2023-03-29T01:38:35.075Z,86.13
2023-03-29T01:39:33.582Z,86.03
2023-03-29T01:40:34.549Z,86.03
2023-03-29T01:41:33.580Z,86.03
2023-03-29T01:42:33.525Z,86.13
2023-03-29T01:43:33.532Z,86.13
2023-03-29T01:44:33.517Z,86.13
2023-03-29T01:45:33.520Z,86.13
2023-03-29T01:46:35.031Z,86.13
2023-03-29T01:47:33.544Z,86.24
2023-03-29T01:48:33.984Z,86.24
2023-03-29T01:49:34.897Z,86.24
2023-03-29T01:50:33.462Z,86.13
2023-03-29T01:51:33.786Z,86.24
2023-03-29T01:52:33.418Z,86.13
2023-03-29T01:53:34.203Z,86.03
2023-03-29T01:54:33.375Z,85.93
2023-03-29T01:55:33.393Z,85.83
2023-03-29T01:56:33.398Z,85.72
2023-03-29T01:57:33.361Z,85.68
2023-03-29T01:58:33.347Z,85.47
2023-03-29T01:59:33.367Z,85.37
2023-03-29T02:00:33.342Z,85.27
2023-03-29T02:01:33.388Z,85.27
2023-03-29T02:02:34.816Z,85.27
2023-03-29T02:03:33.365Z,85.27
2023-03-29T02:04:33.307Z,85.21
2023-03-29T02:05:35.789Z,85.21
2023-03-29T02:06:33.260Z,85.31
2023-03-29T02:07:33.235Z,85.27
2023-03-29T02:08:33.246Z,85.41
2023-03-29T02:09:33.237Z,85.52
2023-03-29T02:10:33.239Z,85.47
2023-03-29T02:11:33.186Z,85.47
2023-03-29T02:12:33.198Z,85.47
2023-03-29T02:13:33.155Z,85.47
2023-03-29T02:14:33.153Z,85.47
2023-03-29T02:15:33.167Z,85.47
2023-03-29T02:16:33.126Z,85.37
2023-03-29T02:17:33.153Z,85.37
2023-03-29T02:18:33.123Z,85.47
2023-03-29T02:19:33.085Z,85.47
2023-03-29T02:20:33.122Z,85.47
2023-03-29T02:21:33.065Z,85.37
2023-03-29T02:22:33.106Z,85.27
2023-03-29T02:23:33.103Z,85.17
2023-03-29T02:24:33.038Z,84.96
2023-03-29T02:25:33.195Z,84.86
2023-03-29T02:26:33.032Z,84.75
2023-03-29T02:27:33.013Z,84.75
2023-03-29T02:28:33.014Z,84.75
2023-03-29T02:29:32.972Z,84.75
2023-03-29T02:30:33.008Z,84.65
2023-03-29T02:31:34.533Z,84.65
2023-03-29T02:32:32.977Z,84.65
2023-03-29T02:33:32.940Z,84.75
2023-03-29T02:34:32.948Z,84.72
2023-03-29T02:35:32.942Z,84.75
2023-03-29T02:36:32.945Z,84.61
2023-03-29T02:37:32.908Z,84.61
2023-03-29T02:38:32.884Z,84.51
2023-03-29T02:39:32.891Z,84.51
2023-03-29T02:40:32.878Z,84.51
2023-03-29T02:41:32.921Z,84.51
2023-03-29T02:42:32.831Z,84.51
2023-03-29T02:43:32.820Z,84.41
2023-03-29T02:44:32.834Z,84.41
2023-03-29T02:45:32.806Z,84.41
2023-03-29T02:46:32.868Z,84.30
2023-03-29T02:47:33.683Z,84.30
2023-03-29T02:48:32.770Z,84.20
2023-03-29T02:49:33.015Z,84.20
2023-03-29T02:50:32.748Z,84.09
2023-03-29T02:51:32.753Z,84.20
2023-03-29T02:52:33.026Z,84.41
2023-03-29T02:53:32.737Z,84.41
2023-03-29T02:54:32.744Z,84.41
2023-03-29T02:55:32.723Z,84.30
2023-03-29T02:56:32.683Z,84.30
2023-03-29T02:57:32.710Z,84.20
2023-03-29T02:58:32.695Z,84.09
2023-03-29T02:59:32.643Z,83.89
2023-03-29T03:00:32.640Z,83.89
2023-03-29T03:01:32.661Z,83.68
2023-03-29T03:02:32.765Z,83.58
2023-03-29T03:03:32.675Z,83.58
2023-03-29T03:04:32.642Z,83.58
2023-03-29T03:05:32.661Z,83.54
2023-03-29T03:06:33.402Z,83.54
2023-03-29T03:07:36.681Z,83.54
2023-03-29T03:08:33.432Z,83.54
2023-03-29T03:09:32.529Z,83.44
2023-03-29T03:10:32.532Z,83.44
2023-03-29T03:11:32.519Z,83.33
2023-03-29T03:12:32.528Z,83.33
2023-03-29T03:13:32.501Z,83.23
2023-03-29T03:14:32.492Z,83.23
2023-03-29T03:15:32.476Z,83.23
2023-03-29T03:16:32.510Z,83.23
2023-03-29T03:17:32.569Z,83.23
2023-03-29T03:18:32.456Z,83.23
2023-03-29T03:19:32.446Z,83.23
2023-03-29T03:20:33.089Z,83.23
2023-03-29T03:21:32.424Z,83.23
2023-03-29T03:22:33.857Z,83.33
2023-03-29T03:23:32.417Z,83.44
2023-03-29T03:24:32.373Z,83.44
2023-03-29T03:25:33.331Z,83.54
2023-03-29T03:26:32.361Z,83.54
2023-03-29T03:27:32.341Z,83.64
2023-03-29T03:28:32.377Z,83.75
2023-03-29T03:29:32.322Z,83.85
2023-03-29T03:30:32.416Z,83.81
2023-03-29T03:31:32.313Z,83.81
2023-03-29T03:32:32.356Z,83.81
2023-03-29T03:33:32.270Z,83.81
2023-03-29T03:34:32.276Z,83.81
2023-03-29T03:35:32.280Z,83.81
2023-03-29T03:36:32.228Z,83.71
2023-03-29T03:37:32.213Z,83.71
2023-03-29T03:38:32.220Z,83.71
2023-03-29T03:39:32.221Z,83.71
2023-03-29T03:40:32.191Z,83.61
2023-03-29T03:41:32.176Z,83.61
2023-03-29T03:42:32.190Z,83.61
2023-03-29T03:43:32.143Z,83.64
2023-03-29T03:44:32.164Z,83.64
2023-03-29T03:45:32.203Z,83.75
2023-03-29T03:46:32.128Z,83.85
2023-03-29T03:47:32.148Z,83.81
2023-03-29T03:48:36.831Z,83.95
2023-03-29T03:49:32.079Z,83.95
2023-03-29T03:50:32.088Z,83.95
2023-03-29T03:51:32.226Z,84.16
2023-03-29T03:52:32.046Z,84.27
2023-03-29T03:53:32.061Z,84.36
2023-03-29T03:54:33.013Z,84.36
2023-03-29T03:55:32.013Z,84.47
2023-03-29T03:56:32.046Z,84.36
2023-03-29T03:57:32.002Z,84.36
2023-03-29T03:58:32.002Z,84.36
2023-03-29T03:59:31.960Z,84.36
2023-03-29T04:00:31.999Z,84.36
2023-03-29T04:01:31.958Z,84.27
2023-03-29T04:02:32.002Z,84.33
2023-03-29T04:03:32.057Z,84.36
2023-03-29T04:04:32.016Z,84.22
2023-03-29T04:05:31.932Z,84.16
2023-03-29T04:06:31.892Z,84.06
2023-03-29T04:07:31.956Z,84.01
2023-03-29T04:08:31.870Z,84.12
2023-03-29T04:09:31.913Z,84.16
2023-03-29T04:10:31.869Z,84.16
2023-03-29T04:11:31.835Z,84.22
2023-03-29T04:12:31.887Z,84.36
2023-03-29T04:13:31.815Z,84.47
2023-03-29T04:14:31.814Z,84.67
2023-03-29T04:15:31.847Z,84.78
2023-03-29T04:16:31.819Z,84.88
2023-03-29T04:17:31.843Z,85.05
2023-03-29T04:18:31.852Z,85.19
2023-03-29T04:19:31.741Z,85.39
2023-03-29T04:20:31.753Z,85.50
2023-03-29T04:21:31.768Z,85.81
2023-03-29T04:22:31.747Z,85.91
2023-03-29T04:23:31.702Z,86.02
2023-03-29T04:24:31.692Z,86.12
2023-03-29T04:25:31.680Z,86.32
2023-03-29T04:26:31.690Z,86.53
2023-03-29T04:27:31.687Z,86.74
2023-03-29T04:28:31.663Z,87.05
2023-03-29T04:29:31.658Z,87.26
2023-03-29T04:30:31.621Z,87.56
2023-03-29T04:31:31.768Z,87.77
2023-03-29T04:32:32.133Z,87.98
2023-03-29T04:33:31.656Z,88.29
2023-03-29T04:34:31.614Z,88.53
2023-03-29T04:35:31.575Z,88.74
2023-03-29T04:36:31.570Z,89.05
2023-03-29T04:37:31.543Z,89.25
2023-03-29T04:38:31.547Z,89.46
2023-03-29T04:39:31.547Z,89.77
2023-03-29T04:40:31.581Z,89.98
2023-03-29T04:41:31.504Z,90.28
2023-03-29T04:42:31.492Z,90.59
2023-03-29T04:43:31.491Z,90.91
2023-03-29T04:44:31.484Z,91.22
2023-03-29T04:45:31.467Z,91.42
2023-03-29T04:46:31.592Z,91.63
2023-03-29T04:47:31.448Z,91.94
2023-03-29T04:48:31.423Z,92.14
2023-03-29T04:49:31.418Z,92.35
2023-03-29T04:50:31.420Z,92.55
2023-03-29T04:51:32.394Z,92.76
2023-03-29T04:52:31.389Z,92.86
2023-03-29T04:53:31.361Z,93.07
2023-03-29T04:54:31.363Z,93.28
2023-03-29T04:55:31.360Z,93.49
2023-03-29T04:56:31.345Z,93.69
2023-03-29T04:57:31.519Z,93.90
2023-03-29T04:58:32.533Z,94.00
2023-03-29T04:59:31.337Z,94.10
2023-03-29T05:00:31.310Z,94.10
2023-03-29T05:01:31.418Z,94.25
2023-03-29T05:02:31.305Z,94.35
2023-03-29T05:03:31.284Z,94.46
2023-03-29T05:04:31.320Z,94.56
2023-03-29T05:05:31.284Z,94.67
2023-03-29T05:06:32.473Z,94.77
2023-03-29T05:07:32.219Z,94.77
2023-03-29T05:08:31.234Z,94.87
2023-03-29T05:09:32.562Z,94.97
2023-03-29T05:10:31.215Z,94.97
2023-03-29T05:11:31.171Z,95.07
2023-03-29T05:12:31.256Z,95.07
2023-03-29T05:13:31.150Z,95.18
2023-03-29T05:14:31.134Z,95.18
2023-03-29T05:15:31.155Z,95.28
2023-03-29T05:16:31.207Z,95.39
2023-03-29T05:17:31.159Z,95.39
2023-03-29T05:18:31.100Z,95.49
2023-03-29T05:19:31.107Z,95.59
2023-03-29T05:20:31.101Z,95.70
2023-03-29T05:21:31.086Z,95.70
2023-03-29T05:22:31.063Z,95.80
2023-03-29T05:23:31.034Z,95.80
2023-03-29T05:24:31.025Z,95.90
2023-03-29T05:25:31.104Z,95.90
2023-03-29T05:26:31.038Z,95.90
2023-03-29T05:27:31.073Z,96.01
2023-03-29T05:28:30.994Z,96.01
2023-03-29T05:29:30.959Z,96.11
2023-03-29T05:30:30.957Z,96.11
2023-03-29T05:31:30.953Z,96.11
2023-03-29T05:32:32.478Z,96.11
2023-03-29T05:33:30.941Z,96.21
2023-03-29T05:34:30.903Z,96.11
2023-03-29T05:35:30.974Z,96.21
2023-03-29T05:36:30.890Z,96.21
2023-03-29T05:37:32.517Z,96.27
2023-03-29T05:38:30.890Z,96.42
2023-03-29T05:39:30.865Z,96.48
2023-03-29T05:40:30.898Z,96.48
2023-03-29T05:41:30.842Z,96.58
2023-03-29T05:42:30.845Z,96.58
2023-03-29T05:43:30.860Z,96.69
2023-03-29T05:44:30.894Z,96.69
2023-03-29T05:45:30.828Z,96.69
2023-03-29T05:46:30.801Z,96.79
2023-03-29T05:47:30.804Z,96.79
2023-03-29T05:48:30.773Z,96.89
2023-03-29T05:49:30.750Z,96.89
2023-03-29T05:50:30.796Z,96.89
2023-03-29T05:51:30.741Z,96.99
2023-03-29T05:52:32.185Z,97.09
2023-03-29T05:53:30.704Z,97.09
2023-03-29T05:54:30.711Z,97.09
2023-03-29T05:55:30.688Z,97.09
2023-03-29T05:56:30.716Z,97.09
2023-03-29T05:57:30.672Z,97.09
2023-03-29T05:58:30.671Z,97.09
2023-03-29T05:59:30.649Z,97.09
2023-03-29T06:00:31.600Z,97.09
2023-03-29T06:01:30.626Z,96.99
2023-03-29T06:02:30.717Z,96.99
2023-03-29T06:03:30.716Z,96.89
2023-03-29T06:04:30.716Z,96.84
2023-03-29T06:05:30.566Z,96.74
2023-03-29T06:06:30.567Z,96.74
2023-03-29T06:07:30.590Z,96.74
2023-03-29T06:08:31.393Z,96.64
2023-03-29T06:09:30.544Z,96.53
2023-03-29T06:10:31.333Z,96.53
2023-03-29T06:11:30.548Z,96.44
2023-03-29T06:12:30.567Z,96.44
2023-03-29T06:13:30.495Z,96.33
2023-03-29T06:14:30.497Z,96.23
2023-03-29T06:15:30.471Z,96.23
2023-03-29T06:16:30.477Z,96.12
2023-03-29T06:17:30.672Z,96.12
2023-03-29T06:18:30.442Z,96.02
2023-03-29T06:19:30.472Z,95.92
2023-03-29T06:20:30.412Z,95.92
2023-03-29T06:21:30.432Z,95.81
2023-03-29T06:22:30.542Z,95.81
2023-03-29T06:23:30.578Z,95.67
2023-03-29T06:24:30.371Z,95.56
2023-03-29T06:25:30.392Z,95.56
2023-03-29T06:26:30.358Z,95.46
2023-03-29T06:27:30.324Z,95.36
2023-03-29T06:28:30.362Z,95.25
2023-03-29T06:29:30.312Z,95.25
2023-03-29T06:30:30.312Z,95.05
2023-03-29T06:31:30.333Z,94.95
2023-03-29T06:32:30.295Z,94.84
2023-03-29T06:33:30.303Z,94.74
2023-03-29T06:34:30.245Z,94.53
2023-03-29T06:35:30.329Z,94.28
2023-03-29T06:36:30.242Z,94.08
2023-03-29T06:37:30.237Z,93.98
2023-03-29T06:38:30.207Z,93.87
2023-03-29T06:39:30.202Z,93.66
2023-03-29T06:40:30.242Z,93.56
2023-03-29T06:41:30.195Z,93.35
2023-03-29T06:42:30.161Z,93.25
2023-03-29T06:43:30.170Z,93.15
2023-03-29T06:44:31.642Z,93.05
2023-03-29T06:45:30.148Z,92.94
2023-03-29T06:46:30.172Z,92.74
2023-03-29T06:47:30.145Z,92.53
2023-03-29T06:48:30.097Z,92.38
2023-03-29T06:49:30.924Z,92.18
2023-03-29T06:50:30.075Z,92.08
2023-03-29T06:51:30.064Z,91.97
2023-03-29T06:52:30.052Z,91.87
2023-03-29T06:53:30.074Z,91.66
2023-03-29T06:54:30.415Z,91.56
2023-03-29T06:55:30.029Z,91.46
2023-03-29T06:56:30.019Z,91.36
2023-03-29T06:57:30.074Z,91.25
2023-03-29T06:58:30.003Z,91.15
2023-03-29T06:59:30.000Z,91.05
2023-03-29T07:00:29.998Z,91.05
2023-03-29T07:01:30.049Z,90.94
2023-03-29T07:02:30.784Z,90.84
2023-03-29T07:03:30.091Z,90.73
2023-03-29T07:04:30.029Z,90.64
2023-03-29T07:05:30.167Z,90.59
2023-03-29T07:06:29.898Z,90.59
2023-03-29T07:07:29.885Z,90.49
2023-03-29T07:08:30.253Z,90.39
2023-03-29T07:09:29.899Z,90.39
2023-03-29T07:10:31.352Z,90.08
2023-03-29T07:11:31.320Z,89.87
2023-03-29T07:12:31.309Z,89.67
2023-03-29T07:13:29.931Z,89.56
2023-03-29T07:14:29.868Z,89.36
2023-03-29T07:15:29.822Z,89.25
2023-03-29T07:16:29.805Z,89.15
2023-03-29T07:17:29.825Z,89.15
2023-03-29T07:18:29.763Z,89.05
2023-03-29T07:19:29.776Z,88.95
2023-03-29T07:20:29.874Z,88.84
2023-03-29T07:21:29.758Z,88.70
2023-03-29T07:22:31.397Z,88.80
2023-03-29T07:23:29.708Z,88.70
2023-03-29T07:24:29.724Z,88.59
2023-03-29T07:25:30.522Z,88.39
2023-03-29T07:26:30.225Z,88.18
2023-03-29T07:27:29.661Z,88.08
2023-03-29T07:28:29.711Z,87.98
2023-03-29T07:29:29.660Z,87.87
2023-03-29T07:30:31.975Z,87.77
2023-03-29T07:31:37.876Z,87.57
2023-03-29T07:32:31.181Z,87.26
2023-03-29T07:33:29.689Z,87.15
2023-03-29T07:34:29.586Z,87.15
2023-03-29T07:35:30.704Z,87.15
2023-03-29T07:36:29.603Z,87.36
2023-03-29T07:37:29.589Z,87.52
2023-03-29T07:38:29.545Z,87.63
2023-03-29T07:39:30.353Z,87.84
2023-03-29T07:40:29.501Z,87.73
2023-03-29T07:41:29.529Z,87.28
2023-03-29T07:42:29.551Z,86.97
2023-03-29T07:43:29.486Z,86.66
2023-03-29T07:44:29.504Z,86.46
2023-03-29T07:45:29.485Z,86.35
2023-03-29T07:46:30.940Z,86.05
2023-03-29T07:47:29.664Z,85.84
2023-03-29T07:48:29.481Z,85.84
2023-03-29T07:49:29.424Z,85.70
2023-03-29T07:50:29.416Z,85.28
2023-03-29T07:51:29.417Z,84.98
2023-03-29T07:52:29.374Z,84.88
2023-03-29T07:53:29.380Z,84.88
2023-03-29T07:54:30.190Z,84.67
2023-03-29T07:55:30.823Z,84.56
2023-03-29T07:56:29.461Z,84.26
2023-03-29T07:57:29.490Z,84.16
2023-03-29T07:58:29.332Z,84.05
2023-03-29T07:59:29.357Z,84.16
2023-03-29T08:00:29.398Z,84.26
2023-03-29T08:01:29.330Z,84.26
2023-03-29T08:02:30.781Z,84.26
2023-03-29T08:03:29.297Z,84.36
2023-03-29T08:04:30.300Z,84.53
2023-03-29T08:05:40.607Z,84.53
2023-03-29T08:06:30.270Z,84.53
2023-03-29T08:07:29.218Z,84.32
2023-03-29T08:08:29.214Z,84.32
2023-03-29T08:09:29.212Z,84.42
2023-03-29T08:10:29.173Z,84.32
2023-03-29T08:11:29.183Z,84.32
2023-03-29T08:12:29.601Z,84.22
2023-03-29T08:13:29.253Z,84.01
2023-03-29T08:14:29.175Z,83.81
2023-03-29T08:15:29.152Z,83.50
2023-03-29T08:16:29.134Z,83.40
2023-03-29T08:17:30.671Z,83.15
2023-03-29T08:18:29.108Z,83.15
2023-03-29T08:19:29.092Z,83.15
2023-03-29T08:20:29.130Z,83.26
2023-03-29T08:21:29.060Z,83.26
2023-03-29T08:22:30.517Z,82.95
2023-03-29T08:23:29.058Z,82.95
2023-03-29T08:24:29.036Z,83.05
2023-03-29T08:25:29.046Z,83.12
2023-03-29T08:26:29.041Z,83.05
2023-03-29T08:27:29.028Z,82.70
2023-03-29T08:28:29.017Z,82.70
2023-03-29T08:29:29.044Z,82.60
2023-03-29T08:30:28.954Z,82.50
2023-03-29T08:31:29.028Z,82.40
2023-03-29T08:32:29.029Z,82.50
2023-03-29T08:33:28.972Z,82.40
2023-03-29T08:34:28.912Z,82.60
2023-03-29T08:35:29.090Z,82.67
2023-03-29T08:36:28.893Z,82.50
2023-03-29T08:37:28.893Z,82.36
2023-03-29T08:38:28.889Z,82.36
2023-03-29T08:39:28.914Z,82.36
2023-03-29T08:40:28.857Z,82.36
2023-03-29T08:41:28.850Z,82.36
2023-03-29T08:42:30.308Z,82.36
2023-03-29T08:43:28.824Z,82.46
2023-03-29T08:44:28.825Z,82.36
2023-03-29T08:45:28.802Z,82.05
2023-03-29T08:46:34.544Z,82.01
2023-03-29T08:47:29.784Z,82.01
2023-03-29T08:48:28.833Z,82.12
2023-03-29T08:49:28.798Z,82.12
2023-03-29T08:50:28.751Z,82.01
2023-03-29T08:51:28.739Z,82.01
2023-03-29T08:52:29.559Z,82.01
2023-03-29T08:53:29.512Z,82.01
2023-03-29T08:54:28.723Z,82.01
2023-03-29T08:55:28.701Z,82.01
2023-03-29T08:56:32.767Z,82.12
2023-03-29T08:57:28.778Z,82.08
2023-03-29T08:58:28.676Z,82.08
2023-03-29T08:59:28.654Z,82.18
2023-03-29T09:00:28.634Z,82.28
2023-03-29T09:01:28.647Z,82.28
2023-03-29T09:02:28.715Z,82.18
2023-03-29T09:03:29.650Z,82.08
2023-03-29T09:04:28.595Z,82.08
2023-03-29T09:05:28.649Z,82.18
2023-03-29T09:06:28.601Z,82.24
2023-03-29T09:07:28.552Z,82.14
2023-03-29T09:08:28.566Z,82.14
2023-03-29T09:09:28.592Z,82.04
2023-03-29T09:10:28.509Z,81.94
2023-03-29T09:11:28.546Z,81.84
2023-03-29T09:12:28.498Z,81.73
2023-03-29T09:13:28.611Z,81.52
2023-03-29T09:14:28.459Z,81.52
2023-03-29T09:15:29.939Z,81.52
2023-03-29T09:16:28.499Z,81.32
2023-03-29T09:17:29.472Z,81.32
2023-03-29T09:18:28.431Z,81.43
2023-03-29T09:19:28.461Z,81.43
2023-03-29T09:20:28.406Z,81.22
2023-03-29T09:21:28.616Z,81.08
2023-03-29T09:22:28.370Z,80.98
2023-03-29T09:23:28.417Z,80.77
2023-03-29T09:24:29.846Z,80.67
2023-03-29T09:25:28.415Z,80.77
2023-03-29T09:26:28.335Z,80.77
2023-03-29T09:27:28.314Z,80.77
2023-03-29T09:28:28.317Z,80.63
2023-03-29T09:29:29.305Z,80.43
2023-03-29T09:30:28.272Z,80.22
2023-03-29T09:31:28.353Z,80.22
2023-03-29T09:32:28.363Z,80.12
2023-03-29T09:33:28.257Z,80.02
2023-03-29T09:34:28.241Z,79.88
2023-03-29T09:35:28.265Z,79.88
2023-03-29T09:36:28.218Z,79.57
2023-03-29T09:37:28.209Z,79.37
2023-03-29T09:38:28.199Z,79.37
2023-03-29T09:39:28.182Z,79.16
2023-03-29T09:40:28.173Z,79.13
2023-03-29T09:41:28.242Z,79.02
2023-03-29T09:42:28.488Z,78.92
2023-03-29T09:43:28.138Z,78.72
2023-03-29T09:44:30.781Z,78.52
2023-03-29T09:45:28.158Z,78.48
2023-03-29T09:46:28.102Z,78.17
2023-03-29T09:47:28.124Z,77.97
2023-03-29T09:48:28.083Z,77.97
2023-03-29T09:49:28.083Z,77.86
2023-03-29T09:50:31.489Z,77.86
2023-03-29T09:51:28.143Z,77.66
2023-03-29T09:52:28.023Z,77.56
2023-03-29T09:53:28.025Z,77.45
2023-03-29T09:54:28.031Z,77.25
2023-03-29T09:55:28.958Z,77.11
2023-03-29T09:56:28.081Z,77.11
2023-03-29T09:57:28.817Z,77.01
2023-03-29T09:58:27.975Z,76.70
2023-03-29T09:59:27.989Z,76.40
2023-03-29T10:00:27.940Z,76.29
2023-03-29T10:01:27.998Z,76.29
2023-03-29T10:02:27.957Z,75.78
2023-03-29T10:03:27.923Z,75.78
2023-03-29T10:04:27.934Z,75.78
2023-03-29T10:05:27.898Z,75.68
2023-03-29T10:06:27.908Z,75.68
2023-03-29T10:07:27.885Z,75.58
2023-03-29T10:08:27.861Z,75.44
2023-03-29T10:09:27.847Z,75.44
2023-03-29T10:10:27.823Z,75.24
2023-03-29T10:11:27.820Z,75.24
2023-03-29T10:12:27.823Z,75.34
2023-03-29T10:13:27.820Z,75.24
2023-03-29T10:14:27.785Z,74.90
2023-03-29T10:15:29.999Z,74.90
2023-03-29T10:16:28.670Z,75.00
2023-03-29T10:17:28.221Z,75.10
2023-03-29T10:18:27.767Z,75.20
2023-03-29T10:19:27.737Z,75.07
2023-03-29T10:20:27.755Z,74.86
2023-03-29T10:21:27.754Z,74.66
2023-03-29T10:22:27.777Z,73.94
2023-03-29T10:23:27.737Z,73.91
2023-03-29T10:24:27.670Z,73.91
2023-03-29T10:25:27.651Z,73.60
2023-03-29T10:26:27.753Z,73.71
2023-03-29T10:27:27.650Z,74.01
2023-03-29T10:28:27.633Z,74.11
2023-03-29T10:29:27.680Z,74.01
2023-03-29T10:30:27.601Z,74.01
2023-03-29T10:31:27.619Z,74.01
2023-03-29T10:32:27.589Z,74.01
2023-03-29T10:33:27.802Z,73.91
2023-03-29T10:34:27.610Z,73.77
2023-03-29T10:35:27.580Z,73.67
2023-03-29T10:36:27.581Z,73.26
2023-03-29T10:37:27.521Z,72.96
2023-03-29T10:38:27.519Z,72.92
2023-03-29T10:39:27.558Z,73.02
2023-03-29T10:40:27.517Z,72.82
2023-03-29T10:41:28.978Z,72.82
2023-03-29T10:42:27.518Z,72.82
2023-03-29T10:43:27.472Z,72.82
2023-03-29T10:44:27.452Z,72.58
2023-03-29T10:45:27.437Z,72.69
2023-03-29T10:46:27.466Z,72.69
2023-03-29T10:47:27.453Z,72.17
2023-03-29T10:48:27.444Z,72.38
2023-03-29T10:49:27.390Z,72.48
2023-03-29T10:50:27.396Z,72.69
2023-03-29T10:51:27.364Z,72.55
2023-03-29T10:52:27.390Z,72.45
2023-03-29T10:53:27.347Z,72.14
2023-03-29T10:54:27.398Z,71.94
2023-03-29T10:55:27.327Z,71.64
2023-03-29T10:56:27.350Z,71.94
2023-03-29T10:57:28.833Z,71.73
2023-03-29T10:58:27.471Z,71.84
2023-03-29T10:59:27.274Z,71.94
2023-03-29T11:00:27.279Z,71.94
2023-03-29T11:01:27.326Z,72.14
2023-03-29T11:02:27.358Z,72.04
2023-03-29T11:03:27.498Z,71.60
2023-03-29T11:04:27.226Z,71.50
2023-03-29T11:05:27.241Z,71.70
2023-03-29T11:06:27.221Z,71.47
2023-03-29T11:07:27.231Z,71.06
2023-03-29T11:08:29.688Z,71.16
2023-03-29T11:09:27.194Z,71.06
2023-03-29T11:10:27.161Z,71.06
2023-03-29T11:11:27.144Z,70.45
2023-03-29T11:12:28.136Z,70.55
2023-03-29T11:13:27.129Z,70.86
2023-03-29T11:14:27.133Z,70.82
2023-03-29T11:15:28.175Z,70.42
2023-03-29T11:16:27.160Z,70.55
2023-03-29T11:17:28.203Z,70.72
2023-03-29T11:18:27.085Z,70.92
2023-03-29T11:19:27.084Z,71.12
2023-03-29T11:20:27.063Z,70.75
2023-03-29T11:21:27.012Z,70.35
2023-03-29T11:22:27.100Z,70.45
2023-03-29T11:23:27.008Z,70.86
2023-03-29T11:24:27.966Z,71.06
2023-03-29T11:25:29.517Z,71.36
2023-03-29T11:26:26.979Z,71.60
2023-03-29T11:27:26.980Z,71.50
2023-03-29T11:28:26.976Z,71.70
2023-03-29T11:29:26.963Z,71.80
2023-03-29T11:30:26.940Z,72.01
2023-03-29T11:31:26.951Z,72.11
2023-03-29T11:32:29.750Z,72.25
2023-03-29T11:33:27.867Z,72.65
2023-03-29T11:34:26.911Z,72.75
2023-03-29T11:35:26.872Z,72.75
2023-03-29T11:36:26.868Z,72.75
2023-03-29T11:37:26.856Z,72.86
2023-03-29T11:38:26.864Z,73.06
2023-03-29T11:39:26.831Z,73.26
2023-03-29T11:40:26.856Z,73.26
2023-03-29T11:41:26.795Z,73.54
2023-03-29T11:42:26.804Z,73.23
2023-03-29T11:43:26.779Z,72.92
2023-03-29T11:44:26.786Z,72.92
2023-03-29T11:45:26.792Z,72.92
2023-03-29T11:46:26.964Z,72.78
2023-03-29T11:47:26.779Z,72.89
2023-03-29T11:48:26.751Z,72.99
2023-03-29T11:49:26.708Z,72.85
2023-03-29T11:50:26.722Z,72.75
2023-03-29T11:51:26.697Z,72.85
2023-03-29T11:52:26.733Z,72.55
2023-03-29T11:53:26.698Z,72.45
2023-03-29T11:54:26.696Z,72.25
2023-03-29T11:55:26.637Z,72.34
2023-03-29T11:56:26.637Z,72.34
2023-03-29T11:57:26.662Z,72.45
2023-03-29T11:58:26.646Z,72.45
2023-03-29T11:59:27.571Z,72.34
2023-03-29T12:00:26.602Z,72.21
2023-03-29T12:01:26.637Z,71.91
2023-03-29T12:02:26.665Z,71.91
2023-03-29T12:03:26.636Z,71.80
2023-03-29T12:04:27.585Z,71.80
2023-03-29T12:05:26.534Z,71.80
2023-03-29T12:06:26.537Z,72.01
2023-03-29T12:07:26.552Z,71.91
2023-03-29T12:08:27.461Z,71.80
2023-03-29T12:09:26.495Z,71.67
2023-03-29T12:10:26.512Z,71.57
2023-03-29T12:11:27.430Z,71.36
2023-03-29T12:12:26.439Z,71.36
2023-03-29T12:13:27.395Z,71.26
2023-03-29T12:14:28.078Z,71.23
2023-03-29T12:15:26.408Z,71.33
2023-03-29T12:16:26.496Z,71.13
2023-03-29T12:17:26.641Z,71.03
2023-03-29T12:18:26.390Z,70.92
2023-03-29T12:19:26.402Z,71.00
2023-03-29T12:20:26.455Z,71.09
2023-03-29T12:21:26.374Z,70.79
2023-03-29T12:22:26.333Z,70.48
2023-03-29T12:23:26.323Z,70.48
2023-03-29T12:24:26.314Z,70.48
2023-03-29T12:25:26.299Z,70.69
2023-03-29T12:26:26.345Z,71.09
2023-03-29T12:27:26.304Z,71.30
2023-03-29T12:28:26.296Z,71.50
2023-03-29T12:29:26.253Z,71.40
2023-03-29T12:30:26.276Z,71.37
2023-03-29T12:31:26.296Z,71.16
2023-03-29T12:32:26.256Z,71.06
2023-03-29T12:33:26.222Z,70.56
2023-03-29T12:34:26.207Z,70.45
2023-03-29T12:35:27.164Z,70.35
2023-03-29T12:36:26.193Z,70.25
2023-03-29T12:37:26.199Z,70.35
2023-03-29T12:38:27.568Z,70.32
2023-03-29T12:39:26.163Z,70.35
2023-03-29T12:40:27.015Z,70.45
2023-03-29T12:41:26.134Z,70.62
2023-03-29T12:42:26.131Z,70.62
2023-03-29T12:43:26.145Z,70.62
2023-03-29T12:44:26.101Z,70.32
2023-03-29T12:45:26.094Z,70.42
2023-03-29T12:46:26.129Z,70.52
2023-03-29T12:47:26.066Z,70.83
2023-03-29T12:48:26.078Z,70.42
2023-03-29T12:49:26.042Z,70.32
2023-03-29T12:50:26.060Z,70.12
2023-03-29T12:51:26.056Z,70.21
2023-03-29T12:52:26.005Z,70.32